createdAt,value
2023-04-07T00:01:18.191Z,7.90
2023-04-07T00:03:44.773Z,8.60
2023-04-07T00:06:13.959Z,7.87
2023-04-07T00:08:40.482Z,8.00
2023-04-07T00:11:07.370Z,7.83
2023-04-07T00:13:34.448Z,7.90
2023-04-07T00:16:04.644Z,7.50
2023-04-07T00:18:31.502Z,7.57
2023-04-07T00:20:57.909Z,7.47
2023-04-07T00:23:24.680Z,7.90
2023-04-07T00:25:51.174Z,8.30
2023-04-07T00:28:17.628Z,6.97
2023-04-07T00:33:29.059Z,8.80
2023-04-07T00:35:57.777Z,8.50
2023-04-07T00:38:24.506Z,7.50
2023-04-07T00:40:57.212Z,8.70
2023-04-07T00:43:25.323Z,8.97
2023-04-07T00:45:53.386Z,7.60
2023-04-07T00:48:20.219Z,7.00
2023-04-07T00:50:46.660Z,7.93
2023-04-07T00:53:14.232Z,8.90
2023-04-07T00:55:41.379Z,7.63
2023-04-07T00:58:08.600Z,7.80
2023-04-07T01:00:38.045Z,7.50
2023-04-07T01:03:09.779Z,7.50
2023-04-07T01:05:36.705Z,8.10
2023-04-07T01:08:14.116Z,8.43
2023-04-07T01:10:44.783Z,7.80
2023-04-07T01:13:22.425Z,7.40
2023-04-07T01:15:52.748Z,8.57
2023-04-07T01:18:22.120Z,7.70
2023-04-07T01:20:50.134Z,7.40
2023-04-07T01:23:36.389Z,7.73
2023-04-07T01:26:02.792Z,7.57
2023-04-07T01:29:00.490Z,8.17
2023-04-07T01:31:27.677Z,8.03
2023-04-07T01:33:55.980Z,8.40
2023-04-07T01:36:23.365Z,8.17
2023-04-07T01:38:50.878Z,8.17
2023-04-07T01:41:18.648Z,8.90
2023-04-07T01:43:46.390Z,7.53
2023-04-07T01:46:31.667Z,9.40
2023-04-07T01:48:59.157Z,7.87
2023-04-07T01:51:27.368Z,8.50
2023-04-07T01:53:54.848Z,7.93
2023-04-07T01:56:41.027Z,8.83
2023-04-07T01:59:08.348Z,8.50
2023-04-07T02:01:34.937Z,8.30
2023-04-07T02:04:20.291Z,8.40
2023-04-07T02:06:59.934Z,8.43
2023-04-07T02:09:34.659Z,7.83
2023-04-07T02:12:04.176Z,8.97
2023-04-07T02:14:36.584Z,8.30
2023-04-07T02:17:08.696Z,8.37
2023-04-07T02:19:36.169Z,8.97
2023-04-07T02:22:04.988Z,8.97
2023-04-07T02:24:31.388Z,8.73
2023-04-07T02:26:58.586Z,8.70
2023-04-07T02:29:25.472Z,8.17
2023-04-07T02:34:37.192Z,9.07
2023-04-07T02:37:04.126Z,9.20
2023-04-07T02:39:30.788Z,8.70
2023-04-07T02:41:58.180Z,9.00
2023-04-07T02:44:43.278Z,8.77
2023-04-07T02:47:10.409Z,8.53
2023-04-07T02:49:36.831Z,9.30
2023-04-07T02:52:03.739Z,8.50
2023-04-07T02:54:30.307Z,8.77
2023-04-07T02:56:58.198Z,8.30
2023-04-07T02:59:26.113Z,8.53
2023-04-07T03:01:53.086Z,7.93
2023-04-07T03:04:38.614Z,8.40
2023-04-07T03:09:53.780Z,8.17
2023-04-07T03:12:20.724Z,8.40
2023-04-07T03:14:47.719Z,8.93
2023-04-07T03:17:14.686Z,8.70
2023-04-07T03:19:42.026Z,7.63
2023-04-07T03:22:08.498Z,9.00
2023-04-07T03:24:41.038Z,9.60
2023-04-07T03:27:08.045Z,9.20
2023-04-07T03:29:40.376Z,8.70
2023-04-07T03:32:10.378Z,8.97
2023-04-07T03:34:37.440Z,8.60
2023-04-07T03:37:03.863Z,8.17
2023-04-07T03:39:33.351Z,8.67
2023-04-07T03:42:01.132Z,8.77
2023-04-07T03:44:30.988Z,8.00
2023-04-07T03:46:58.002Z,8.33
2023-04-07T03:49:26.978Z,8.50
2023-04-07T03:51:54.729Z,9.13
2023-04-07T03:54:21.577Z,8.13
2023-04-07T03:56:48.744Z,8.90
2023-04-07T03:59:19.330Z,9.03
2023-04-07T04:02:02.334Z,7.70
2023-04-07T04:04:29.081Z,9.67
2023-04-07T04:06:56.491Z,8.50
2023-04-07T04:09:34.381Z,7.93
2023-04-07T04:12:01.218Z,8.00
2023-04-07T04:14:29.236Z,8.53
2023-04-07T04:16:59.061Z,8.70
2023-04-07T04:19:30.406Z,8.50
2023-04-07T04:22:00.334Z,8.20
2023-04-07T04:24:29.408Z,8.53
2023-04-07T04:27:01.901Z,7.47
2023-04-07T04:29:28.563Z,7.37
2023-04-07T04:31:56.692Z,8.10
2023-04-07T04:34:26.378Z,8.73
2023-04-07T04:36:54.867Z,8.23
2023-04-07T04:39:21.424Z,8.10
2023-04-07T04:41:48.156Z,8.90
2023-04-07T04:44:15.964Z,8.17
2023-04-07T04:46:43.509Z,7.70
2023-04-07T04:49:10.575Z,8.20
2023-04-07T04:51:38.099Z,8.30
2023-04-07T04:54:12.540Z,8.60
2023-04-07T04:56:39.423Z,8.27
2023-04-07T04:59:06.560Z,8.30
2023-04-07T05:01:55.940Z,8.23
2023-04-07T05:04:22.694Z,8.07
2023-04-07T05:06:58.015Z,8.67
2023-04-07T05:09:27.844Z,8.47
2023-04-07T05:11:54.896Z,8.70
2023-04-07T05:14:22.708Z,7.90
2023-04-07T05:16:55.518Z,8.57
2023-04-07T05:19:27.438Z,8.47
2023-04-07T05:21:57.174Z,7.80
2023-04-07T05:24:27.251Z,7.17
2023-04-07T05:26:57.864Z,7.90
2023-04-07T05:29:25.347Z,8.60
2023-04-07T05:31:52.486Z,8.07
2023-04-07T05:34:21.345Z,7.93
2023-04-07T05:36:52.886Z,7.43
2023-04-07T05:39:21.114Z,7.73
2023-04-07T05:41:49.619Z,9.03
2023-04-07T05:44:17.042Z,7.57
2023-04-07T05:46:44.553Z,6.80
2023-04-07T05:49:19.646Z,8.27
2023-04-07T05:51:50.667Z,7.93
2023-04-07T05:54:17.269Z,8.00
2023-04-07T05:56:43.984Z,8.30
2023-04-07T05:59:11.993Z,9.30
2023-04-07T06:01:39.200Z,8.17
2023-04-07T06:04:06.492Z,7.57
2023-04-07T06:06:33.181Z,7.70
2023-04-07T06:08:59.721Z,7.83
2023-04-07T06:11:27.512Z,7.57
2023-04-07T06:13:54.042Z,7.10
2023-04-07T06:16:20.767Z,6.50
2023-04-07T06:18:47.597Z,7.80
2023-04-07T06:21:14.076Z,6.70
2023-04-07T06:23:40.508Z,7.00
2023-04-07T06:26:10.226Z,7.20
2023-04-07T06:28:36.960Z,7.47
2023-04-07T06:31:03.443Z,7.10
2023-04-07T06:33:30.366Z,7.07
2023-04-07T06:35:57.780Z,7.40
2023-04-07T06:38:24.711Z,6.30
2023-04-07T06:40:51.889Z,6.30
2023-04-07T06:43:18.830Z,6.27
2023-04-07T06:45:56.416Z,6.23
2023-04-07T06:48:23.207Z,6.60
2023-04-07T06:50:49.943Z,5.50
2023-04-07T06:53:16.478Z,6.77
2023-04-07T06:55:42.895Z,5.50
2023-04-07T06:58:09.548Z,6.63
2023-04-07T07:00:36.886Z,6.83
2023-04-07T07:03:03.601Z,5.60
2023-04-07T07:05:30.197Z,6.30
2023-04-07T07:07:57.108Z,5.83
2023-04-07T07:10:23.629Z,5.80
2023-04-07T07:12:51.049Z,6.10
2023-04-07T07:15:18.044Z,7.07
2023-04-07T07:17:44.647Z,6.13
2023-04-07T07:20:11.224Z,9.33
2023-04-07T07:22:37.687Z,5.83
2023-04-07T07:25:04.288Z,6.37
2023-04-07T07:27:30.875Z,5.90
2023-04-07T07:29:57.567Z,5.60
2023-04-07T07:32:24.045Z,6.60
2023-04-07T07:35:09.139Z,6.30
2023-04-07T07:37:35.716Z,5.60
2023-04-07T07:40:02.218Z,6.00
2023-04-07T07:42:29.465Z,6.07
2023-04-07T07:44:55.880Z,7.70
2023-04-07T07:47:22.831Z,6.23
2023-04-07T07:49:49.406Z,6.17
2023-04-07T07:52:16.386Z,5.90
2023-04-07T07:54:42.802Z,6.37
2023-04-07T07:57:09.211Z,6.23
2023-04-07T07:59:35.705Z,5.73
2023-04-07T08:02:02.170Z,6.40
2023-04-07T08:04:28.685Z,6.63
2023-04-07T08:06:56.062Z,6.30
2023-04-07T08:09:22.460Z,5.80
2023-04-07T08:11:48.872Z,6.00
2023-04-07T08:14:15.931Z,6.50
2023-04-07T08:16:42.501Z,5.97
2023-04-07T08:19:09.879Z,6.30
2023-04-07T08:21:36.341Z,6.13
2023-04-07T08:24:02.923Z,6.10
2023-04-07T08:26:29.541Z,6.50
2023-04-07T08:28:56.597Z,6.30
2023-04-07T08:31:23.032Z,6.30
2023-04-07T08:33:54.295Z,6.50
2023-04-07T08:36:21.021Z,6.17
2023-04-07T08:38:47.449Z,6.40
2023-04-07T08:41:17.450Z,7.17
2023-04-07T08:43:47.548Z,6.53
2023-04-07T08:46:19.188Z,5.93
2023-04-07T08:48:49.219Z,6.30
2023-04-07T08:51:16.241Z,6.40
2023-04-07T08:53:50.685Z,6.27
2023-04-07T08:56:21.314Z,5.40
2023-04-07T08:58:48.284Z,5.93
2023-04-07T09:01:16.188Z,5.67
2023-04-07T09:03:44.615Z,5.30
2023-04-07T09:06:11.394Z,5.57
2023-04-07T09:08:37.840Z,6.90
2023-04-07T09:11:04.384Z,5.60
2023-04-07T09:13:31.576Z,6.10
2023-04-07T09:16:01.443Z,5.30
2023-04-07T09:18:28.016Z,6.20
2023-04-07T09:20:57.105Z,6.17
2023-04-07T09:23:31.284Z,5.90
2023-04-07T09:25:59.943Z,5.37
2023-04-07T09:28:38.204Z,4.67
2023-04-07T09:31:04.639Z,5.17
2023-04-07T09:33:31.543Z,5.50
2023-04-07T09:35:58.048Z,5.90
2023-04-07T09:38:32.721Z,6.40
2023-04-07T09:41:25.735Z,6.20
2023-04-07T09:43:56.462Z,5.53
2023-04-07T09:46:24.348Z,4.93
2023-04-07T09:49:01.629Z,5.20
2023-04-07T09:51:29.003Z,5.10
2023-04-07T09:53:55.411Z,5.47
2023-04-07T09:56:22.361Z,6.10
2023-04-07T09:58:51.327Z,5.93
2023-04-07T10:01:18.154Z,5.60
2023-04-07T10:03:47.247Z,5.23
2023-04-07T10:06:16.776Z,5.60
2023-04-07T10:08:43.681Z,5.40
2023-04-07T10:11:10.573Z,5.20
2023-04-07T10:13:39.156Z,4.87
2023-04-07T10:16:06.497Z,6.10
2023-04-07T10:18:33.862Z,5.57
2023-04-07T10:21:01.901Z,4.70
2023-04-07T10:23:39.505Z,4.87
2023-04-07T10:26:07.615Z,5.37
2023-04-07T10:28:37.634Z,5.33
2023-04-07T10:31:04.782Z,5.80
2023-04-07T10:33:48.088Z,5.67
2023-04-07T10:36:15.074Z,5.80
2023-04-07T10:38:42.561Z,4.90
2023-04-07T10:41:28.085Z,5.20
2023-04-07T10:43:54.536Z,4.57
2023-04-07T10:46:21.480Z,5.70
2023-04-07T10:49:20.906Z,5.80
2023-04-07T10:52:06.164Z,4.87
2023-04-07T10:54:32.618Z,5.80
2023-04-07T10:57:13.178Z,5.07
2023-04-07T10:59:41.001Z,4.30
2023-04-07T11:02:17.465Z,5.00
2023-04-07T11:04:46.127Z,5.70
2023-04-07T11:07:13.866Z,4.97
2023-04-07T11:09:40.754Z,5.17
2023-04-07T11:12:08.001Z,5.50
2023-04-07T11:14:37.368Z,6.00
2023-04-07T11:17:03.964Z,5.70
2023-04-07T11:19:32.237Z,5.87
2023-04-07T11:22:29.464Z,6.00
2023-04-07T11:24:57.062Z,5.70
2023-04-07T11:27:23.597Z,6.27
2023-04-07T11:29:50.283Z,5.73
2023-04-07T11:32:24.875Z,5.73
2023-04-07T11:34:52.377Z,5.70
2023-04-07T11:37:22.500Z,5.93
2023-04-07T11:39:53.715Z,5.23
2023-04-07T11:42:36.252Z,5.70
2023-04-07T11:45:02.963Z,5.50
2023-04-07T11:47:36.773Z,5.60
2023-04-07T11:50:03.439Z,4.43
2023-04-07T11:52:40.142Z,5.00
2023-04-07T11:55:06.897Z,5.40
2023-04-07T11:57:33.324Z,5.27
2023-04-07T12:00:06.302Z,4.50
2023-04-07T12:02:33.817Z,5.10
2023-04-07T12:05:01.080Z,5.60
2023-04-07T12:07:28.438Z,4.50
2023-04-07T12:09:55.328Z,4.60
2023-04-07T12:12:26.303Z,4.20
2023-04-07T12:14:53.009Z,4.90
2023-04-07T12:17:29.398Z,5.23
2023-04-07T12:19:56.013Z,5.17
2023-04-07T12:22:22.413Z,4.70
2023-04-07T12:24:49.012Z,4.80
2023-04-07T12:27:15.474Z,4.00
2023-04-07T12:29:43.736Z,4.80
2023-04-07T12:32:10.693Z,4.33
2023-04-07T12:34:37.592Z,4.23
2023-04-07T12:37:04.040Z,4.80
2023-04-07T12:39:30.475Z,4.50
2023-04-07T12:41:58.088Z,4.10
2023-04-07T12:44:24.493Z,5.03
2023-04-07T12:46:51.250Z,5.00
2023-04-07T12:49:17.674Z,3.83
2023-04-07T12:51:44.354Z,4.67
2023-04-07T12:54:11.173Z,4.47
2023-04-07T12:56:37.614Z,4.73
2023-04-07T12:59:04.067Z,4.20
2023-04-07T13:01:30.693Z,4.60
2023-04-07T13:03:57.289Z,4.50
2023-04-07T13:06:24.405Z,4.13
2023-04-07T13:08:51.683Z,4.70
2023-04-07T13:11:18.101Z,4.30
2023-04-07T13:13:44.587Z,3.80
2023-04-07T13:16:11.285Z,4.60
2023-04-07T13:18:37.746Z,4.67
2023-04-07T13:21:40.617Z,4.60
2023-04-07T13:23:51.566Z,3.90
2023-04-07T13:26:18.139Z,4.33
2023-04-07T13:28:45.957Z,4.13
2023-04-07T13:31:15.817Z,3.43
2023-04-07T13:33:42.669Z,3.70
2023-04-07T13:36:09.495Z,3.30
2023-04-07T13:38:36.618Z,3.10
2023-04-07T13:41:03.820Z,3.70
2023-04-07T13:43:30.525Z,3.53
2023-04-07T13:45:57.240Z,2.93
2023-04-07T13:48:23.790Z,3.10
2023-04-07T13:50:50.663Z,3.60
2023-04-07T13:53:18.956Z,2.57
2023-04-07T13:55:45.993Z,3.20
2023-04-07T13:58:12.429Z,3.20
2023-04-07T14:00:40.255Z,2.93
2023-04-07T14:03:07.888Z,2.40
2023-04-07T14:05:35.781Z,2.80
2023-04-07T14:08:02.229Z,2.83
2023-04-07T14:10:29.246Z,3.03
2023-04-07T14:12:56.256Z,2.90
2023-04-07T14:15:22.835Z,2.97
2023-04-07T14:17:49.267Z,3.07
2023-04-07T14:20:15.675Z,2.80
2023-04-07T14:22:42.460Z,3.03
2023-04-07T14:25:08.993Z,2.70
2023-04-07T14:27:35.407Z,2.27
2023-04-07T14:30:02.269Z,3.03
2023-04-07T14:32:33.205Z,3.17
2023-04-07T14:34:59.641Z,3.10
2023-04-07T14:37:26.596Z,3.43
2023-04-07T14:40:02.599Z,3.23
2023-04-07T14:42:30.444Z,2.90
2023-04-07T14:45:00.194Z,3.07
2023-04-07T14:47:27.392Z,3.37
2023-04-07T14:49:54.409Z,2.70
2023-04-07T14:52:21.748Z,2.73
2023-04-07T14:54:48.802Z,2.57
2023-04-07T14:57:16.994Z,2.90
2023-04-07T14:59:43.731Z,3.00
2023-04-07T15:02:10.497Z,3.23
2023-04-07T15:04:37.289Z,3.40
2023-04-07T15:07:04.137Z,3.50
2023-04-07T15:09:31.115Z,3.70
2023-04-07T15:11:57.590Z,3.20
2023-04-07T15:14:24.072Z,3.27
2023-04-07T15:16:50.673Z,3.80
2023-04-07T15:19:17.130Z,3.40
2023-04-07T15:21:43.661Z,3.47
2023-04-07T15:24:10.167Z,2.60
2023-04-07T15:26:36.577Z,2.73
2023-04-07T15:29:03.014Z,3.20
2023-04-07T15:31:30.268Z,3.50
2023-04-07T15:33:56.807Z,4.50
2023-04-07T15:36:23.538Z,3.30
2023-04-07T15:38:50.308Z,3.27
2023-04-07T15:41:17.100Z,3.27
2023-04-07T15:43:43.670Z,3.40
2023-04-07T15:46:10.067Z,3.67
2023-04-07T15:48:36.595Z,2.87
2023-04-07T15:51:03.819Z,2.97
2023-04-07T15:53:30.602Z,3.13
2023-04-07T15:55:57.528Z,3.00
2023-04-07T15:58:24.182Z,3.80
2023-04-07T16:00:51.117Z,3.07
2023-04-07T16:03:17.762Z,3.50
2023-04-07T16:05:44.424Z,3.37
2023-04-07T16:08:13.232Z,3.17
2023-04-07T16:10:40.185Z,3.03
2023-04-07T16:13:06.570Z,3.27
2023-04-07T16:15:40.272Z,3.57
2023-04-07T16:18:09.540Z,3.50
2023-04-07T16:20:36.025Z,3.90
2023-04-07T16:23:02.559Z,3.37
2023-04-07T16:25:29.605Z,3.47
2023-04-07T16:27:56.285Z,3.17
2023-04-07T16:30:25.156Z,3.50
2023-04-07T16:32:51.709Z,3.47
2023-04-07T16:35:18.164Z,3.57
2023-04-07T16:37:49.376Z,4.07
2023-04-07T16:40:16.234Z,3.10
2023-04-07T16:42:42.715Z,3.43
2023-04-07T16:45:09.636Z,4.07
2023-04-07T16:47:37.446Z,3.57
2023-04-07T16:50:04.719Z,3.37
2023-04-07T16:52:31.549Z,3.10
2023-04-07T16:54:58.101Z,3.23
2023-04-07T16:57:24.611Z,3.00
2023-04-07T16:59:51.056Z,2.97
2023-04-07T17:02:17.653Z,2.63
2023-04-07T17:04:44.370Z,2.63
2023-04-07T17:07:11.442Z,2.63
2023-04-07T17:09:38.034Z,3.10
2023-04-07T17:12:06.301Z,1.90
2023-04-07T17:14:33.235Z,2.20
2023-04-07T17:17:01.301Z,2.73
2023-04-07T17:19:27.916Z,2.23
2023-04-07T17:21:54.380Z,1.60
2023-04-07T17:24:21.530Z,1.60
2023-04-07T17:26:48.000Z,1.40
2023-04-07T17:29:17.558Z,1.43
2023-04-07T17:31:44.203Z,1.27
2023-04-07T17:34:11.157Z,1.40
2023-04-07T17:36:38.116Z,1.40
2023-04-07T17:39:04.929Z,1.50
2023-04-07T17:41:32.980Z,1.50
2023-04-07T17:43:59.859Z,1.20
2023-04-07T17:46:27.304Z,2.07
2023-04-07T17:48:54.986Z,1.20
2023-04-07T17:51:21.444Z,1.37
2023-04-07T17:53:48.598Z,1.33
2023-04-07T17:56:15.245Z,1.63
2023-04-07T17:58:41.750Z,1.47
2023-04-07T18:01:10.422Z,1.87
2023-04-07T18:03:37.050Z,1.70
2023-04-07T18:06:04.311Z,1.67
2023-04-07T18:08:31.566Z,1.30
2023-04-07T18:10:58.051Z,1.50
2023-04-07T18:13:24.858Z,1.70
2023-04-07T18:15:51.872Z,2.10
2023-04-07T18:18:19.548Z,1.83
2023-04-07T18:20:46.020Z,1.77
2023-04-07T18:23:12.515Z,2.00
2023-04-07T18:25:38.949Z,1.40
2023-04-07T18:28:06.049Z,2.07
2023-04-07T18:30:32.720Z,2.10
2023-04-07T18:32:59.242Z,1.70
2023-04-07T18:35:26.251Z,2.07
2023-04-07T18:37:52.737Z,2.27
2023-04-07T18:40:19.159Z,1.77
2023-04-07T18:42:45.701Z,1.73
2023-04-07T18:45:12.107Z,1.70
2023-04-07T18:47:38.945Z,1.20
2023-04-07T18:50:05.767Z,1.60
2023-04-07T18:52:32.174Z,1.60
2023-04-07T18:54:58.899Z,2.10
2023-04-07T18:57:25.370Z,2.30
2023-04-07T18:59:52.836Z,2.10
2023-04-07T19:02:19.447Z,2.53
2023-04-07T19:04:46.244Z,2.30
2023-04-07T19:07:12.683Z,2.00
2023-04-07T19:09:39.797Z,2.20
2023-04-07T19:12:06.477Z,1.90
2023-04-07T19:14:33.638Z,2.00
2023-04-07T19:17:00.288Z,1.87
2023-04-07T19:19:28.321Z,1.90
2023-04-07T19:21:55.150Z,1.83
2023-04-07T19:24:21.577Z,2.33
2023-04-07T19:26:48.065Z,2.13
2023-04-07T19:29:16.327Z,2.50
2023-04-07T19:31:43.571Z,2.20
2023-04-07T19:34:10.479Z,2.83
2023-04-07T19:36:37.633Z,2.10
2023-04-07T19:39:05.254Z,3.03
2023-04-07T19:41:31.843Z,2.87
2023-04-07T19:43:58.802Z,2.70
2023-04-07T19:46:25.399Z,2.80
2023-04-07T19:48:51.970Z,3.10
2023-04-07T19:51:18.663Z,2.87
2023-04-07T19:53:45.380Z,4.00
2023-04-07T19:56:13.861Z,3.30
2023-04-07T19:58:40.291Z,3.00
2023-04-07T20:01:14.941Z,3.40
2023-04-07T20:03:43.313Z,3.60
2023-04-07T20:06:09.864Z,3.20
2023-04-07T20:08:36.330Z,3.40
2023-04-07T20:11:02.735Z,3.30
2023-04-07T20:13:31.622Z,2.90
2023-04-07T20:15:58.564Z,2.87
2023-04-07T20:18:25.030Z,2.73
2023-04-07T20:20:57.841Z,3.47
2023-04-07T20:23:24.261Z,2.20
2023-04-07T20:25:51.689Z,2.70
2023-04-07T20:28:19.210Z,2.80
2023-04-07T20:30:46.164Z,3.30
2023-04-07T20:33:13.976Z,2.97
2023-04-07T20:35:40.549Z,3.30
2023-04-07T20:38:07.637Z,3.67
2023-04-07T20:40:35.644Z,3.83
2023-04-07T20:43:02.591Z,3.00
2023-04-07T20:45:29.150Z,3.50
2023-04-07T20:47:56.648Z,3.23
2023-04-07T20:50:23.462Z,3.50
2023-04-07T20:52:49.922Z,3.20
2023-04-07T20:55:16.582Z,3.47
2023-04-07T20:57:43.013Z,3.80
2023-04-07T21:00:10.636Z,4.03
2023-04-07T21:02:37.719Z,4.40
2023-04-07T21:05:04.490Z,4.20
2023-04-07T21:07:31.669Z,4.00
2023-04-07T21:10:00.585Z,4.00
2023-04-07T21:12:27.013Z,3.57
2023-04-07T21:14:53.456Z,3.83
2023-04-07T21:17:20.576Z,3.80
2023-04-07T21:19:47.285Z,4.00
2023-04-07T21:22:13.994Z,3.70
2023-04-07T21:24:40.637Z,3.87
2023-04-07T21:27:07.114Z,4.10
2023-04-07T21:29:33.909Z,3.90
2023-04-07T21:32:00.783Z,4.33
2023-04-07T21:34:27.238Z,3.97
2023-04-07T21:36:53.655Z,3.60
2023-04-07T21:39:20.168Z,3.37
2023-04-07T21:41:46.590Z,3.87
2023-04-07T21:44:13.337Z,3.90
2023-04-07T21:46:41.040Z,3.37
2023-04-07T21:49:07.934Z,3.67
2023-04-07T21:51:53.637Z,4.40
2023-04-07T21:54:20.230Z,3.83
2023-04-07T21:56:48.913Z,3.80
2023-04-07T21:59:17.176Z,3.43
2023-04-07T22:01:46.078Z,3.67
2023-04-07T22:04:13.036Z,3.50
2023-04-07T22:06:39.867Z,4.00
2023-04-07T22:11:33.697Z,3.77
2023-04-07T22:14:00.195Z,3.67
2023-04-07T22:16:26.759Z,3.40
2023-04-07T22:18:53.332Z,4.30
2023-04-07T22:21:19.806Z,3.37
2023-04-07T22:23:46.540Z,3.87
2023-04-07T22:26:13.294Z,3.67
2023-04-07T22:28:39.782Z,3.63
2023-04-07T22:31:06.370Z,3.37
2023-04-07T22:33:33.315Z,4.07
2023-04-07T22:35:59.797Z,3.53
2023-04-07T22:38:26.326Z,3.47
2023-04-07T22:40:53.563Z,3.60
2023-04-07T22:43:19.957Z,3.43
2023-04-07T22:45:46.387Z,3.73
2023-04-07T22:48:13.011Z,4.20
2023-04-07T22:50:39.471Z,3.87
2023-04-07T22:53:07.355Z,3.50
2023-04-07T22:55:34.682Z,3.40
2023-04-07T22:58:01.681Z,3.60
2023-04-07T23:00:28.297Z,3.67
2023-04-07T23:02:54.898Z,3.50
2023-04-07T23:05:21.885Z,3.60
2023-04-07T23:07:48.274Z,3.47
2023-04-07T23:10:14.726Z,4.50
2023-04-07T23:12:41.202Z,4.07
2023-04-07T23:15:08.092Z,4.07
2023-04-07T23:17:34.555Z,4.60
2023-04-07T23:20:01.005Z,4.40
2023-04-07T23:22:27.453Z,4.17
2023-04-07T23:24:54.111Z,4.10
2023-04-07T23:27:21.265Z,4.50
2023-04-07T23:29:47.704Z,4.03
2023-04-07T23:32:14.218Z,4.20
2023-04-07T23:34:41.094Z,4.53
2023-04-07T23:37:08.076Z,4.00
2023-04-07T23:39:34.512Z,4.03
2023-04-07T23:42:02.419Z,4.13
2023-04-07T23:44:29.102Z,3.90
2023-04-07T23:46:55.765Z,4.70
2023-04-07T23:49:22.213Z,4.90
2023-04-07T23:51:48.622Z,4.90
2023-04-07T23:54:15.048Z,3.70
2023-04-07T23:56:41.495Z,4.47
2023-04-07T23:59:07.957Z,4.07
